Time;durP1;ratioP1;P1;durP2;ratioP2;P2;SDS_P1;SDS_P2;PMS_P1;PMS_P2;Temp;Humidity;BMP_temperature;BMP_pressure;BME280_temperature;BME280_humidity;BME280_pressure;Samples;Min_cycle;Max_cycle;Signal;HPM_P1;HPM_P2
2023/08/27 00:01:25;;;;;;;8.95;7.22;;;26.10;1.00;;;;;;5072161;28;20032;-68
2023/08/27 00:03:55;;;;;;;9.55;7.35;;;26.10;1.00;;;;;;5099349;28;20047;-68
2023/08/27 00:06:21;;;;;;;8.25;7.60;;;26.10;1.00;;;;;;5072535;28;20020;-68
2023/08/27 00:08:46;;;;;;;7.53;6.78;;;26.10;1.00;;;;;;5071454;28;20033;-68
2023/08/27 00:11:12;;;;;;;9.05;7.07;;;26.10;1.00;;;;;;5072407;28;20059;-68
2023/08/27 00:13:38;;;;;;;7.72;6.97;;;26.10;1.00;;;;;;5070903;28;20033;-68
2023/08/27 00:16:05;;;;;;;7.82;6.88;;;26.10;1.00;;;;;;5071471;28;20048;-68
2023/08/27 00:18:31;;;;;;;5.63;5.13;;;26.00;1.00;;;;;;5070158;28;20029;-68
2023/08/27 00:20:58;;;;;;;6.63;5.15;;;26.00;1.00;;;;;;5070381;28;20126;-68
2023/08/27 00:23:26;;;;;;;6.53;5.22;;;26.00;1.00;;;;;;5072117;28;20021;-68
2023/08/27 00:25:52;;;;;;;5.65;5.15;;;26.00;1.00;;;;;;5073064;28;20032;-68
2023/08/27 00:28:17;;;;;;;6.10;5.50;;;26.00;1.00;;;;;;5074755;28;20028;-68
2023/08/27 00:30:43;;;;;;;5.72;4.50;;;26.00;1.00;;;;;;5075686;28;20047;-68
2023/08/27 00:33:09;;;;;;;6.65;4.70;;;25.90;1.00;;;;;;5074902;28;20091;-67
2023/08/27 00:35:35;;;;;;;5.63;4.40;;;25.90;1.00;;;;;;5075681;28;20029;-68
2023/08/27 00:38:01;;;;;;;7.32;4.68;;;25.90;1.00;;;;;;5073929;28;20031;-68
2023/08/27 00:40:29;;;;;;;4.25;3.88;;;25.90;1.00;;;;;;5075352;28;20107;-68
2023/08/27 00:42:58;;;;;;;6.43;3.88;;;25.90;1.00;;;;;;5074512;28;20036;-67
2023/08/27 00:45:27;;;;;;;4.18;3.65;;;25.80;1.00;;;;;;5075426;28;20023;-68
2023/08/27 00:47:53;;;;;;;5.60;3.88;;;25.80;1.00;;;;;;5062840;28;20032;-67
2023/08/27 00:50:20;;;;;;;4.78;3.65;;;25.80;1.00;;;;;;5075340;28;20028;-68
2023/08/27 00:52:46;;;;;;;4.05;3.40;;;25.80;1.00;;;;;;5073638;28;20099;-67
2023/08/27 00:55:11;;;;;;;4.00;3.65;;;25.80;1.00;;;;;;5075116;28;20578;-67
2023/08/27 00:57:40;;;;;;;3.47;3.17;;;25.80;1.00;;;;;;5074198;28;20035;-67
2023/08/27 01:00:09;;;;;;;5.22;3.55;;;25.70;1.00;;;;;;5074926;28;20036;-67
2023/08/27 01:02:43;;;;;;;3.40;3.08;;;25.70;1.00;;;;;;5073108;28;20024;-68
2023/08/27 01:05:10;;;;;;;4.18;3.30;;;25.70;1.00;;;;;;5074297;28;20069;-67
2023/08/27 01:07:57;;;;;;;3.97;3.13;;;25.60;1.00;;;;;;5072954;28;20116;-67
2023/08/27 01:10:26;;;;;;;4.15;2.83;;;25.70;1.00;;;;;;5074872;28;20029;-67
2023/08/27 01:12:54;;;;;;;5.15;2.90;;;25.70;1.00;;;;;;5074072;28;20371;-67
2023/08/27 01:15:32;;;;;;;4.47;3.65;;;25.70;1.00;;;;;;5104986;28;20033;-67
2023/08/27 01:18:00;;;;;;;3.10;2.90;;;25.60;1.00;;;;;;5073321;28;20031;-68
2023/08/27 01:20:27;;;;;;;5.15;2.95;;;25.70;1.00;;;;;;5074934;28;20094;-67
2023/08/27 01:22:52;;;;;;;3.40;3.10;;;25.60;1.00;;;;;;5072709;28;20032;-68
2023/08/27 01:25:25;;;;;;;6.25;3.38;;;25.70;1.00;;;;;;5106323;28;20041;-67
2023/08/27 01:28:07;;;;;;;4.28;2.75;;;25.70;1.00;;;;;;5069385;28;20070;-67
2023/08/27 01:30:55;;;;;;;4.30;3.05;;;25.80;1.00;;;;;;5070967;28;20056;-67
2023/08/27 01:33:32;;;;;;;2.83;2.58;;;25.70;1.00;;;;;;5072143;28;20024;-67
2023/08/27 01:35:58;;;;;;;3.90;3.03;;;25.70;1.00;;;;;;5072153;28;20036;-67
2023/08/27 01:38:25;;;;;;;4.35;2.67;;;25.70;1.00;;;;;;5071567;28;20020;-67
2023/08/27 01:40:50;;;;;;;2.50;2.30;;;25.70;1.00;;;;;;5074194;28;20032;-67
2023/08/27 01:43:16;;;;;;;2.90;2.65;;;25.70;1.00;;;;;;5072548;28;20016;-67
2023/08/27 01:45:41;;;;;;;2.83;2.58;;;25.60;1.00;;;;;;5072631;28;20414;-68
2023/08/27 01:48:10;;;;;;;2.72;2.45;;;25.70;1.00;;;;;;5074334;28;20137;-68
2023/08/27 01:50:36;;;;;;;4.28;2.60;;;25.70;1.00;;;;;;5073526;28;20194;-67
2023/08/27 01:53:02;;;;;;;2.95;2.63;;;25.70;1.00;;;;;;5072602;28;20086;-62
2023/08/27 01:55:29;;;;;;;3.35;2.90;;;25.60;1.00;;;;;;5073730;28;20397;-67
2023/08/27 01:57:55;;;;;;;5.47;2.58;;;25.70;1.00;;;;;;5071606;28;20024;-67
2023/08/27 02:00:20;;;;;;;2.42;2.25;;;25.70;1.00;;;;;;5071305;28;20044;-67
2023/08/27 02:02:46;;;;;;;3.30;2.60;;;25.60;1.00;;;;;;5072533;28;20020;-68
2023/08/27 02:08:34;;;;;;;3.35;2.50;;;25.70;1.00;;;;;;5057120;28;20086;-67
2023/08/27 02:11:00;;;;;;;4.13;2.70;;;25.60;1.00;;;;;;5068570;28;20024;-67
2023/08/27 02:13:25;;;;;;;3.47;2.45;;;25.60;1.00;;;;;;5073114;28;20451;-67
2023/08/27 02:15:54;;;;;;;2.90;2.60;;;25.70;1.00;;;;;;5073032;28;20039;-67
2023/08/27 02:18:20;;;;;;;3.10;2.65;;;25.60;1.00;;;;;;5072889;28;20116;-67
2023/08/27 02:20:46;;;;;;;4.75;2.80;;;25.60;1.00;;;;;;5071255;28;20047;-67
2023/08/27 02:23:12;;;;;;;3.03;2.60;;;25.60;1.00;;;;;;5085596;28;20016;-67
2023/08/27 02:25:37;;;;;;;4.22;2.55;;;25.60;1.00;;;;;;5067884;28;20427;-67
2023/08/27 02:28:04;;;;;;;3.30;2.55;;;25.60;1.00;;;;;;5066202;28;20036;-67
2023/08/27 02:30:29;;;;;;;5.03;2.92;;;25.60;1.00;;;;;;5070714;28;20024;-67
2023/08/27 02:32:55;;;;;;;2.63;2.42;;;25.60;1.00;;;;;;5066093;28;20028;-67
2023/08/27 02:35:21;;;;;;;3.65;2.90;;;25.60;1.00;;;;;;5087095;28;20466;-67
2023/08/27 02:37:46;;;;;;;3.47;2.80;;;25.60;1.00;;;;;;5074539;28;20028;-67
2023/08/27 02:40:13;;;;;;;3.78;2.47;;;25.70;1.00;;;;;;5085108;28;20098;-67
2023/08/27 02:42:39;;;;;;;4.88;3.08;;;25.60;1.00;;;;;;5070082;28;20508;-67
2023/08/27 02:45:05;;;;;;;3.55;2.72;;;25.60;1.00;;;;;;5073202;28;20056;-67
2023/08/27 02:47:31;;;;;;;4.05;2.78;;;25.60;1.00;;;;;;5071439;28;20489;-67
2023/08/27 02:49:57;;;;;;;2.85;2.65;;;25.60;1.00;;;;;;5074484;28;20034;-67
2023/08/27 02:52:28;;;;;;;6.82;2.97;;;25.70;1.00;;;;;;5090727;28;20020;-67
2023/08/27 02:54:54;;;;;;;3.75;2.92;;;25.60;1.00;;;;;;5072026;28;20041;-67
2023/08/27 02:57:19;;;;;;;4.03;2.88;;;25.60;1.00;;;;;;5071469;28;20470;-67
2023/08/27 02:59:45;;;;;;;4.57;3.03;;;25.60;1.00;;;;;;5071437;28;20037;-67
2023/08/27 03:02:11;;;;;;;4.28;2.95;;;25.60;1.00;;;;;;5072138;28;20025;-67
2023/08/27 03:04:36;;;;;;;5.78;3.15;;;25.60;1.00;;;;;;5072325;28;20049;-67
2023/08/27 03:07:02;;;;;;;4.30;3.30;;;25.70;1.00;;;;;;5072918;28;20475;-67
2023/08/27 03:09:28;;;;;;;3.60;3.25;;;25.60;1.00;;;;;;5084895;28;20032;-67
2023/08/27 03:11:53;;;;;;;3.08;2.83;;;25.60;1.00;;;;;;5073092;28;20019;-67
2023/08/27 03:14:19;;;;;;;5.05;3.00;;;25.70;1.00;;;;;;5071306;28;20059;-67
2023/08/27 03:16:50;;;;;;;3.80;2.75;;;25.70;1.00;;;;;;5071448;28;20078;-67
2023/08/27 03:19:16;;;;;;;4.53;2.55;;;25.70;1.00;;;;;;5071437;28;20179;-67
2023/08/27 03:21:42;;;;;;;3.58;3.28;;;25.70;1.00;;;;;;5070687;28;20527;-67
2023/08/27 03:24:09;;;;;;;3.67;3.28;;;25.80;1.00;;;;;;5066541;28;20025;-67
2023/08/27 03:26:35;;;;;;;3.33;2.90;;;25.80;1.00;;;;;;5068191;28;20024;-67
2023/08/27 03:29:01;;;;;;;4.38;3.75;;;25.70;1.00;;;;;;5072753;28;20031;-67
2023/08/27 03:31:26;;;;;;;6.03;4.50;;;25.60;1.00;;;;;;5071450;28;20123;-67
2023/08/27 03:33:52;;;;;;;4.65;3.63;;;25.60;1.00;;;;;;5066724;28;20473;-67
2023/08/27 03:36:17;;;;;;;3.70;3.42;;;25.60;1.00;;;;;;5071017;28;20037;-67
2023/08/27 03:38:43;;;;;;;8.27;4.65;;;25.60;1.00;;;;;;5071292;28;20033;-67
2023/08/27 03:41:12;;;;;;;5.63;5.10;;;25.50;1.00;;;;;;5072490;28;20040;-66
2023/08/27 03:43:40;;;;;;;5.88;4.22;;;25.60;1.00;;;;;;5086236;28;20081;-66
2023/08/27 03:46:06;;;;;;;5.85;4.50;;;25.50;1.00;;;;;;5072849;28;20024;-66
2023/08/27 03:48:31;;;;;;;5.25;4.75;;;25.50;1.00;;;;;;5070864;28;20028;-66
2023/08/27 03:50:57;;;;;;;5.47;4.95;;;25.50;1.00;;;;;;5071293;28;20493;-66
2023/08/27 03:53:23;;;;;;;6.70;4.38;;;25.40;1.00;;;;;;5069504;28;20041;-66
2023/08/27 03:55:55;;;;;;;9.52;5.07;;;25.50;1.00;;;;;;5072501;28;20066;-67
2023/08/27 03:58:20;;;;;;;5.93;5.32;;;25.50;1.00;;;;;;5070354;28;20040;-66
2023/08/27 04:00:48;;;;;;;5.93;5.15;;;25.40;1.00;;;;;;5072331;28;20066;-66
2023/08/27 04:03:19;;;;;;;7.05;5.20;;;25.40;1.00;;;;;;5076083;28;20489;-66
2023/08/27 04:05:49;;;;;;;7.13;5.55;;;25.50;1.00;;;;;;5075372;28;20043;-66
2023/08/27 04:08:18;;;;;;;7.40;5.70;;;25.40;1.00;;;;;;5073702;28;20052;-66
2023/08/27 04:10:51;;;;;;;6.28;5.72;;;25.50;1.00;;;;;;5075558;28;20021;-66
2023/08/27 04:13:18;;;;;;;7.03;6.30;;;25.40;1.00;;;;;;5074495;28;20474;-66
2023/08/27 04:15:44;;;;;;;9.23;6.75;;;25.40;1.00;;;;;;5075000;28;20274;-66
2023/08/27 04:18:22;;;;;;;8.85;7.90;;;25.50;1.00;;;;;;5073545;28;20025;-66
2023/08/27 04:20:49;;;;;;;10.82;8.18;;;25.30;1.00;;;;;;5075836;28;20064;-66
2023/08/27 04:23:22;;;;;;;12.55;9.00;;;25.20;1.00;;;;;;5074031;28;20419;-66
2023/08/27 04:25:48;;;;;;;10.38;8.60;;;;;;;;;;5073350;28;20039;-66
2023/08/27 04:28:15;;;;;;;11.85;8.48;;;25.30;1.00;;;;;;5074172;28;20567;-66
2023/08/27 04:30:42;;;;;;;9.25;8.02;;;25.40;1.00;;;;;;5075729;28;20037;-66
2023/08/27 04:33:08;;;;;;;9.48;8.20;;;;;;;;;;5075349;28;20028;-66
2023/08/27 04:35:34;;;;;;;15.23;8.25;;;;;;;;;;5074277;28;20478;-66
2023/08/27 04:38:03;;;;;;;8.98;8.00;;;;;;;;;;5073802;28;20020;-66
2023/08/27 04:40:29;;;;;;;10.07;8.10;;;;;;;;;;5068030;28;20409;-66
2023/08/27 04:42:55;;;;;;;10.07;9.07;;;;;;;;;;5074093;28;20020;-66
2023/08/27 04:45:21;;;;;;;9.93;8.80;;;;;;;;;;5074426;28;20103;-66
2023/08/27 04:47:47;;;;;;;10.13;9.13;;;;;;;;;;5074634;28;20047;-66
2023/08/27 04:50:13;;;;;;;9.45;8.65;;;25.40;1.00;;;;;;5071580;28;20078;-66
2023/08/27 04:52:39;;;;;;;11.48;8.90;;;25.30;1.00;;;;;;5073425;28;20017;-66
2023/08/27 04:55:06;;;;;;;9.98;9.00;;;25.30;1.00;;;;;;5072161;28;20546;-66
2023/08/27 04:57:36;;;;;;;12.30;10.95;;;25.30;1.00;;;;;;5074126;28;20024;-66
2023/08/27 05:00:07;;;;;;;11.80;10.13;;;25.20;1.00;;;;;;5074407;28;20119;-66
2023/08/27 05:02:33;;;;;;;11.18;10.07;;;25.20;1.00;;;;;;5073463;28;20028;-66
2023/08/27 05:04:59;;;;;;;13.50;10.98;;;25.30;1.00;;;;;;5074336;28;20098;-66
2023/08/27 05:07:24;;;;;;;12.75;11.38;;;25.30;1.00;;;;;;5073520;28;20470;-66
2023/08/27 05:09:50;;;;;;;12.98;11.05;;;25.40;1.00;;;;;;5075211;28;20086;-66
2023/08/27 05:12:15;;;;;;;11.75;10.52;;;25.50;1.00;;;;;;5073279;28;20497;-66
2023/08/27 05:14:41;;;;;;;13.90;12.32;;;25.40;1.00;;;;;;5075088;28;20069;-66
2023/08/27 05:17:07;;;;;;;13.65;12.32;;;25.40;1.00;;;;;;5073506;28;20359;-66
2023/08/27 05:19:32;;;;;;;14.50;13.13;;;25.50;1.00;;;;;;5074888;28;20484;-66
2023/08/27 05:21:59;;;;;;;15.43;13.88;;;25.40;1.00;;;;;;5073871;28;20031;-66
2023/08/27 05:24:25;;;;;;;14.73;13.30;;;25.40;1.00;;;;;;5074620;28;20111;-66
2023/08/27 05:26:50;;;;;;;15.23;13.63;;;25.50;1.00;;;;;;5074035;28;20128;-66
2023/08/27 05:29:16;;;;;;;16.27;14.57;;;25.40;1.00;;;;;;5072886;28;20021;-66
2023/08/27 05:31:42;;;;;;;14.50;12.93;;;25.40;1.00;;;;;;5074856;28;20381;-66
2023/08/27 05:34:07;;;;;;;14.93;13.48;;;25.40;1.00;;;;;;5074191;28;20020;-66
2023/08/27 05:36:33;;;;;;;15.85;14.45;;;25.40;1.00;;;;;;5074351;28;20428;-65
2023/08/27 05:38:58;;;;;;;17.67;14.95;;;25.40;1.00;;;;;;5071754;28;20057;-66
2023/08/27 05:41:24;;;;;;;17.38;14.43;;;25.40;1.00;;;;;;5073526;28;20556;-66
2023/08/27 05:43:49;;;;;;;15.55;13.93;;;25.30;1.00;;;;;;5077654;28;20017;-66
2023/08/27 05:46:15;;;;;;;15.63;13.98;;;25.50;1.00;;;;;;5074049;28;20116;-66
2023/08/27 05:48:41;;;;;;;15.80;14.30;;;25.50;1.00;;;;;;5073363;28;20069;-65
2023/08/27 05:51:07;;;;;;;16.73;14.85;;;25.50;1.00;;;;;;5072650;28;20043;-66
2023/08/27 05:53:33;;;;;;;16.63;15.07;;;25.50;1.00;;;;;;5074147;28;20044;-65
2023/08/27 05:55:58;;;;;;;18.67;16.05;;;25.60;1.00;;;;;;5073248;28;20379;-65
2023/08/27 05:58:24;;;;;;;17.15;15.55;;;25.60;1.00;;;;;;5072232;28;20033;-65
2023/08/27 06:00:53;;;;;;;17.98;16.10;;;25.60;1.00;;;;;;5067882;28;20113;-66
2023/08/27 06:03:20;;;;;;;17.25;15.65;;;25.60;1.00;;;;;;5073866;28;20029;-66
2023/08/27 06:05:45;;;;;;;16.95;15.15;;;25.60;1.00;;;;;;5073414;28;20025;-66
2023/08/27 06:08:11;;;;;;;18.83;16.92;;;25.60;1.00;;;;;;5071849;28;20028;-66
2023/08/27 06:10:37;;;;;;;19.60;16.30;;;25.60;1.00;;;;;;5073730;28;20115;-66
2023/08/27 06:13:03;;;;;;;18.10;16.45;;;25.50;1.00;;;;;;5069187;28;20025;-66
2023/08/27 06:15:29;;;;;;;18.05;16.00;;;25.50;1.00;;;;;;5072108;28;20038;-65
2023/08/27 06:17:55;;;;;;;17.30;15.60;;;25.60;1.00;;;;;;5073156;28;20033;-66
2023/08/27 06:20:21;;;;;;;18.20;16.52;;;25.60;1.00;;;;;;5072371;28;20123;-66
2023/08/27 06:22:47;;;;;;;17.50;15.77;;;25.60;1.00;;;;;;5068303;28;20066;-65
2023/08/27 06:25:13;;;;;;;17.98;16.08;;;25.60;1.00;;;;;;5071273;28;20044;-66
2023/08/27 06:27:38;;;;;;;19.33;17.23;;;25.70;1.00;;;;;;5071567;28;20043;-66
2023/08/27 06:30:05;;;;;;;17.83;16.00;;;25.60;1.00;;;;;;5073409;28;20040;-66
2023/08/27 06:32:31;;;;;;;18.90;17.05;;;25.60;1.00;;;;;;5072862;28;20021;-66
2023/08/27 06:34:56;;;;;;;18.75;16.63;;;25.60;1.00;;;;;;5072037;28;20489;-66
2023/08/27 06:37:22;;;;;;;18.63;16.75;;;25.60;1.00;;;;;;5072557;28;20030;-66
2023/08/27 06:39:49;;;;;;;19.20;16.17;;;25.70;1.00;;;;;;5072824;28;20489;-66
2023/08/27 06:42:15;;;;;;;18.42;16.58;;;25.80;1.00;;;;;;5078291;28;20027;-65
2023/08/27 06:44:41;;;;;;;17.05;14.93;;;25.90;1.00;;;;;;5071934;28;20028;-66
2023/08/27 06:53:50;;;;;;;17.13;15.30;;;25.80;1.00;;;;;;5053662;28;20560;-66
2023/08/27 06:56:18;;;;;;;16.95;15.15;;;25.80;1.00;;;;;;5070755;28;20037;-65
2023/08/27 06:58:43;;;;;;;17.00;15.27;;;25.80;1.00;;;;;;5071299;28;20028;-65
2023/08/27 07:01:09;;;;;;;16.02;14.43;;;25.80;1.00;;;;;;5071807;28;20036;-66
2023/08/27 07:03:36;;;;;;;16.60;14.73;;;25.90;1.00;;;;;;5072367;28;20021;-65
2023/08/27 07:06:05;;;;;;;16.83;14.90;;;25.90;1.00;;;;;;5073089;28;20501;-65
2023/08/27 07:08:30;;;;;;;19.25;14.52;;;25.80;1.00;;;;;;5070840;28;20052;-66
2023/08/27 07:10:56;;;;;;;16.35;14.23;;;25.80;1.00;;;;;;5073319;28;20486;-66
2023/08/27 07:13:22;;;;;;;15.18;13.52;;;25.90;1.00;;;;;;5072549;28;20104;-66
2023/08/27 07:15:48;;;;;;;16.15;14.50;;;25.90;1.00;;;;;;5071136;28;20112;-65
2023/08/27 07:18:15;;;;;;;19.05;15.02;;;25.80;1.00;;;;;;5063104;28;20024;-65
2023/08/27 07:20:41;;;;;;;17.05;15.25;;;25.80;1.00;;;;;;5062130;28;20570;-66
2023/08/27 07:23:06;;;;;;;15.85;13.88;;;25.80;1.00;;;;;;5072325;28;20099;-66
2023/08/27 07:25:34;;;;;;;16.73;14.38;;;25.80;1.00;;;;;;5071593;28;20032;-66
2023/08/27 07:27:59;;;;;;;15.80;13.55;;;25.80;1.00;;;;;;5070875;28;20027;-66
2023/08/27 07:30:25;;;;;;;15.73;13.23;;;25.70;1.00;;;;;;5073038;28;20100;-66
2023/08/27 07:32:51;;;;;;;15.38;13.65;;;25.80;1.00;;;;;;5071824;28;20036;-65
2023/08/27 07:35:17;;;;;;;17.45;13.65;;;25.80;1.00;;;;;;5073670;28;20438;-66
2023/08/27 07:37:43;;;;;;;16.42;14.38;;;25.70;1.00;;;;;;5076132;28;20163;-66
2023/08/27 07:40:09;;;;;;;17.27;13.85;;;25.70;1.00;;;;;;5076480;28;20040;-66
2023/08/27 07:42:35;;;;;;;15.35;13.75;;;25.80;1.00;;;;;;5077247;28;20374;-66
2023/08/27 07:45:02;;;;;;;15.35;13.45;;;25.80;1.00;;;;;;5076794;28;20032;-65
2023/08/27 07:47:27;;;;;;;15.27;13.77;;;25.80;1.00;;;;;;5075796;28;20031;-66
2023/08/27 07:49:53;;;;;;;15.15;13.70;;;25.80;1.00;;;;;;5076433;28;20032;-66
2023/08/27 07:52:19;;;;;;;14.35;12.95;;;25.80;1.00;;;;;;5075550;28;20020;-66
2023/08/27 07:54:44;;;;;;;16.52;12.57;;;25.80;1.00;;;;;;5076357;28;20056;-66
2023/08/27 07:57:10;;;;;;;16.00;12.75;;;25.80;1.00;;;;;;5075918;28;20040;-66
2023/08/27 07:59:35;;;;;;;15.60;13.45;;;25.80;1.00;;;;;;5074928;28;20020;-66
2023/08/27 08:02:01;;;;;;;15.07;12.73;;;25.80;1.00;;;;;;5074682;28;20382;-66
2023/08/27 08:04:27;;;;;;;15.13;13.45;;;25.80;1.00;;;;;;5074482;28;20048;-66
2023/08/27 08:06:53;;;;;;;13.40;12.00;;;25.70;1.00;;;;;;5076182;28;20063;-66
2023/08/27 08:09:18;;;;;;;14.60;13.10;;;25.80;1.00;;;;;;5075448;28;20035;-66
2023/08/27 08:11:44;;;;;;;14.52;13.00;;;25.90;1.00;;;;;;5076188;28;20025;-66
2023/08/27 08:14:10;;;;;;;13.77;12.45;;;25.80;1.00;;;;;;5075744;28;20479;-66
2023/08/27 08:16:36;;;;;;;16.83;13.48;;;25.90;1.00;;;;;;5076095;28;20036;-66
2023/08/27 08:19:01;;;;;;;15.77;12.77;;;25.80;1.00;;;;;;5074089;28;20492;-66
2023/08/27 08:21:27;;;;;;;13.98;12.68;;;25.80;1.00;;;;;;5075177;28;20040;-66
2023/08/27 08:23:52;;;;;;;15.93;13.07;;;25.90;1.00;;;;;;5075777;28;20470;-66
2023/08/27 08:26:18;;;;;;;14.82;13.38;;;25.90;1.00;;;;;;5075008;28;20033;-66
2023/08/27 08:28:43;;;;;;;16.23;14.63;;;25.90;1.00;;;;;;5074470;28;20075;-67
2023/08/27 08:31:09;;;;;;;16.75;14.95;;;25.80;1.00;;;;;;5075296;28;20024;-66
2023/08/27 08:33:35;;;;;;;16.33;14.73;;;25.80;1.00;;;;;;5075554;28;20028;-66
2023/08/27 08:36:00;;;;;;;14.82;13.15;;;25.80;1.00;;;;;;5074836;28;20052;-66
2023/08/27 08:38:26;;;;;;;15.85;13.40;;;25.70;1.00;;;;;;5075364;28;20104;-66
2023/08/27 08:41:01;;;;;;;16.20;13.65;;;25.80;1.00;;;;;;5073401;28;20391;-66
2023/08/27 08:43:44;;;;;;;14.98;13.55;;;25.80;1.00;;;;;;5075355;28;20485;-66
2023/08/27 08:46:13;;;;;;;14.30;13.00;;;25.80;1.00;;;;;;5073939;28;20060;-66
2023/08/27 08:48:44;;;;;;;14.82;13.27;;;25.80;1.00;;;;;;5072849;28;20029;-66
2023/08/27 08:51:11;;;;;;;14.80;13.30;;;25.80;1.00;;;;;;5068502;28;20032;-66
2023/08/27 08:53:42;;;;;;;14.82;13.32;;;25.80;1.00;;;;;;5068935;28;20414;-65
2023/08/27 08:56:15;;;;;;;15.30;12.70;;;25.80;1.00;;;;;;5074695;28;20112;-66
2023/08/27 08:58:45;;;;;;;15.00;13.07;;;25.80;1.00;;;;;;5074526;28;20021;-66
2023/08/27 09:01:11;;;;;;;15.60;13.18;;;25.80;1.00;;;;;;5075378;28;20127;-66
2023/08/27 09:03:40;;;;;;;17.58;12.70;;;25.80;1.00;;;;;;5074282;28;20143;-66
2023/08/27 09:06:05;;;;;;;14.18;12.68;;;25.80;1.00;;;;;;5074783;28;20078;-67
2023/08/27 09:08:34;;;;;;;15.80;13.38;;;25.80;1.00;;;;;;5074873;28;20095;-66
2023/08/27 09:11:00;;;;;;;20.02;15.95;;;25.80;1.00;;;;;;5074284;28;20032;-69
2023/08/27 09:13:26;;;;;;;16.60;14.40;;;25.80;1.00;;;;;;5074945;28;20398;-69
2023/08/27 09:15:53;;;;;;;17.17;14.48;;;25.80;1.00;;;;;;5074004;28;20020;-70
2023/08/27 09:18:18;;;;;;;15.60;14.02;;;25.70;1.00;;;;;;5074117;28;20024;-71
2023/08/27 09:20:44;;;;;;;16.50;14.95;;;25.80;1.00;;;;;;5075102;28;20391;-70
2023/08/27 09:23:11;;;;;;;17.85;14.90;;;25.70;1.00;;;;;;5069868;28;20021;-71
2023/08/27 09:25:37;;;;;;;16.67;14.80;;;25.60;1.00;;;;;;5066401;28;20032;-71
2023/08/27 09:28:04;;;;;;;16.45;14.80;;;25.60;1.00;;;;;;5073922;28;20382;-71
2023/08/27 09:30:31;;;;;;;18.77;16.83;;;25.60;1.00;;;;;;5074606;28;20033;-70
2023/08/27 09:32:56;;;;;;;19.63;15.80;;;25.60;1.00;;;;;;5073892;28;20025;-71
2023/08/27 09:35:22;;;;;;;31.05;20.77;;;25.40;1.00;;;;;;5074482;28;20032;-71
2023/08/27 09:37:47;;;;;;;19.50;17.10;;;25.40;1.00;;;;;;5072888;28;20016;-71
2023/08/27 09:40:16;;;;;;;24.77;19.23;;;25.20;1.00;;;;;;5074637;28;20094;-70
2023/08/27 09:42:43;;;;;;;20.38;18.17;;;25.20;1.00;;;;;;5082224;28;20023;-70
2023/08/27 09:45:09;;;;;;;26.38;19.40;;;25.20;1.00;;;;;;5073021;28;20500;-70
2023/08/27 09:47:36;;;;;;;21.23;18.48;;;25.20;1.00;;;;;;5074041;28;20020;-68
2023/08/27 09:50:07;;;;;;;22.88;19.50;;;25.00;1.00;;;;;;5067766;28;20036;-69
2023/08/27 09:52:33;;;;;;;21.58;17.80;;;24.90;1.00;;;;;;5073552;28;20095;-69
2023/08/27 09:54:59;;;;;;;19.52;17.63;;;25.00;1.00;;;;;;5073876;28;20056;-69
2023/08/27 09:57:25;;;;;;;19.30;17.48;;;25.00;1.00;;;;;;5072956;28;20044;-69
2023/08/27 09:59:52;;;;;;;20.02;18.10;;;25.00;1.00;;;;;;5073543;28;20060;-69
2023/08/27 10:02:19;;;;;;;35.70;22.95;;;25.00;1.00;;;;;;5066023;28;20033;-70
2023/08/27 10:05:07;;;;;;;23.60;21.10;;;24.70;1.00;;;;;;5072122;28;20390;-69
2023/08/27 10:07:33;;;;;;;22.63;20.48;;;24.50;1.00;;;;;;5069172;28;20049;-69
2023/08/27 10:09:59;;;;;;;22.95;20.52;;;24.30;1.00;;;;;;5072027;28;20600;-70
2023/08/27 10:12:25;;;;;;;21.88;19.55;;;24.30;1.00;;;;;;5073577;28;20509;-70
2023/08/27 10:14:50;;;;;;;21.80;19.55;;;24.40;1.00;;;;;;5074682;28;20044;-70
2023/08/27 10:17:16;;;;;;;23.05;20.65;;;24.60;1.00;;;;;;5073728;28;20025;-70
2023/08/27 10:19:42;;;;;;;23.50;19.08;;;24.80;1.00;;;;;;5105163;28;20041;-70
2023/08/27 10:22:08;;;;;;;23.38;20.98;;;24.90;1.00;;;;;;5063266;28;20104;-70
2023/08/27 10:24:34;;;;;;;21.77;19.42;;;24.90;1.00;;;;;;5101930;28;20112;-70
2023/08/27 10:27:03;;;;;;;21.13;18.88;;;25.00;1.00;;;;;;5064300;28;20018;-70
2023/08/27 10:29:29;;;;;;;23.55;20.00;;;25.10;1.00;;;;;;5071570;28;20029;-70
2023/08/27 10:31:56;;;;;;;18.80;16.90;;;25.20;1.00;;;;;;5073258;28;20528;-70
2023/08/27 10:34:23;;;;;;;20.67;18.50;;;25.20;1.00;;;;;;5073301;28;20039;-70
2023/08/27 10:36:51;;;;;;;21.17;18.63;;;25.20;1.00;;;;;;5061717;28;20034;-70
2023/08/27 10:39:25;;;;;;;20.45;17.98;;;25.30;1.00;;;;;;5073251;28;20024;-70
2023/08/27 10:41:51;;;;;;;21.83;18.77;;;25.50;1.00;;;;;;5072861;28;20419;-70
2023/08/27 10:44:20;;;;;;;22.02;18.75;;;25.60;1.00;;;;;;5085720;28;20020;-69
2023/08/27 10:47:09;;;;;;;19.15;16.00;;;25.40;1.00;;;;;;5066152;28;20083;-69
2023/08/27 10:49:37;;;;;;;18.27;16.42;;;25.30;1.00;;;;;;5071478;28;20025;-70
2023/08/27 10:52:13;;;;;;;19.17;16.75;;;25.40;1.00;;;;;;5073137;28;20016;-69
2023/08/27 10:54:39;;;;;;;24.42;17.25;;;25.50;1.00;;;;;;5071442;28;20155;-69
2023/08/27 10:57:21;;;;;;;18.77;15.32;;;25.60;1.00;;;;;;5073030;28;20418;-69
2023/08/27 10:59:48;;;;;;;19.65;17.25;;;25.40;1.00;;;;;;5072209;28;20069;-69
2023/08/27 11:02:16;;;;;;;22.77;17.45;;;25.50;1.00;;;;;;5072431;28;20394;-69
2023/08/27 11:04:47;;;;;;;19.80;17.70;;;25.60;1.00;;;;;;5073094;28;20028;-69
2023/08/27 11:07:15;;;;;;;22.08;17.13;;;25.60;1.00;;;;;;5072961;28;20532;-70
2023/08/27 11:09:53;;;;;;;16.98;15.30;;;25.60;1.00;;;;;;5069875;28;20428;-69
2023/08/27 11:12:23;;;;;;;18.92;16.05;;;25.50;1.00;;;;;;5071699;28;20444;-69
2023/08/27 11:14:49;;;;;;;18.95;16.90;;;25.60;1.00;;;;;;5072451;28;20039;-69
2023/08/27 11:17:23;;;;;;;18.35;16.55;;;25.60;1.00;;;;;;5073183;28;20021;-68
2023/08/27 11:19:49;;;;;;;24.35;16.27;;;25.40;1.00;;;;;;5072324;28;20393;-68
2023/08/27 11:22:20;;;;;;;19.38;16.75;;;25.50;1.00;;;;;;5073146;28;20021;-69
2023/08/27 11:24:56;;;;;;;15.75;14.23;;;25.40;1.00;;;;;;5071303;28;20034;-68
2023/08/27 11:27:25;;;;;;;16.67;14.25;;;25.30;1.00;;;;;;5072815;28;20017;-69
2023/08/27 11:29:52;;;;;;;16.00;14.38;;;25.40;1.00;;;;;;5070920;28;20048;-69
2023/08/27 11:32:20;;;;;;;15.23;13.55;;;25.40;1.00;;;;;;5071955;28;20033;-68
2023/08/27 11:34:51;;;;;;;13.88;12.50;;;25.40;1.00;;;;;;5072742;28;20100;-69
2023/08/27 11:37:22;;;;;;;14.75;12.18;;;25.40;1.00;;;;;;5070505;28;20536;-69
2023/08/27 11:39:48;;;;;;;13.18;10.73;;;25.50;1.00;;;;;;5072467;28;20467;-69
2023/08/27 11:42:15;;;;;;;15.15;9.45;;;25.30;1.00;;;;;;5071386;28;20051;-69
2023/08/27 11:44:51;;;;;;;13.27;9.63;;;25.20;1.00;;;;;;5071034;28;20024;-69
2023/08/27 11:47:17;;;;;;;9.70;8.73;;;25.30;1.00;;;;;;5070796;28;20025;-69
2023/08/27 11:49:43;;;;;;;9.15;8.25;;;25.50;1.00;;;;;;5072629;28;20108;-69
2023/08/27 11:52:11;;;;;;;8.55;7.07;;;25.20;1.00;;;;;;5071700;28;20056;-69
2023/08/27 11:54:37;;;;;;;11.13;7.78;;;25.20;1.00;;;;;;5069825;28;20040;-69
2023/08/27 11:57:03;;;;;;;11.05;6.78;;;25.30;1.00;;;;;;5071862;28;20032;-69
2023/08/27 11:59:29;;;;;;;7.45;5.88;;;25.30;1.00;;;;;;5070278;28;20036;-69
2023/08/27 12:01:56;;;;;;;7.63;6.82;;;25.40;1.00;;;;;;5071273;28;20029;-68
2023/08/27 12:04:23;;;;;;;8.88;6.60;;;;;;;;;;5071937;28;20099;-68
2023/08/27 12:06:58;;;;;;;6.60;5.93;;;;;;;;;;5072324;28;20029;-68
2023/08/27 12:09:26;;;;;;;8.45;6.13;;;;;;;;;;5071974;28;20079;-68
2023/08/27 12:11:52;;;;;;;8.10;6.20;;;;;;;;;;5072394;28;20094;-68
2023/08/27 12:14:23;;;;;;;11.95;7.25;;;;;;;;;;5070809;28;20025;-69
2023/08/27 12:16:49;;;;;;;8.15;6.18;;;;;;;;;;5071600;28;20036;-68
2023/08/27 12:19:16;;;;;;;8.23;6.38;;;;;;;;;;5072488;28;20048;-68
2023/08/27 12:22:00;;;;;;;8.60;6.85;;;;;;;;;;5073266;28;20036;-68
2023/08/27 12:24:30;;;;;;;;;;;26.00;1.00;;;;;;5066587;28;20426;-68
2023/08/27 12:27:01;;;;;;;8.23;7.43;;;28.50;1.00;;;;;;5073995;28;19974;-68
2023/08/27 12:29:31;;;;;;;9.27;8.00;;;28.40;1.00;;;;;;5075215;28;20033;-68
2023/08/27 12:31:59;;;;;;;8.02;7.25;;;;;;;;;;5075265;28;20611;-68
2023/08/27 12:34:35;;;;;;;11.13;8.75;;;;;;;;;;5074768;28;20027;-69
2023/08/27 12:37:03;;;;;;;11.43;10.23;;;;;;;;;;5073711;28;20048;-68
2023/08/27 12:39:29;;;;;;;10.27;8.73;;;;;;;;;;5075506;28;20024;-69
2023/08/27 12:41:55;;;;;;;11.25;9.68;;;;;;;;;;5077380;28;20031;-68
2023/08/27 12:44:21;;;;;;;11.45;10.05;;;;;;;;;;5087542;28;20114;-68
2023/08/27 12:46:47;;;;;;;13.48;10.00;;;;;;;;;;5074916;28;20042;-69
2023/08/27 12:49:13;;;;;;;11.95;10.48;;;;;;;;;;5073951;28;20038;-68
2023/08/27 12:51:39;;;;;;;15.18;11.98;;;;;;;;;;5075481;28;20487;-68
2023/08/27 12:54:05;;;;;;;15.45;12.57;;;;;;;;;;5073708;28;20127;-68
2023/08/27 12:56:33;;;;;;;13.85;12.52;;;;;;;;;;5075608;28;20020;-69
2023/08/27 12:58:59;;;;;;;12.10;10.80;;;;;;;;;;5074716;28;20075;-69
2023/08/27 13:01:25;;;;;;;12.40;9.95;;;;;;;;;;5107873;28;20060;-69
2023/08/27 13:03:51;;;;;;;11.35;9.68;;;;;;;;;;5073073;28;20420;-69
2023/08/27 13:06:17;;;;;;;10.50;8.85;;;;;;;;;;5073735;28;20024;-68